sensor_id;sensor_type;location;lat;lon;timestamp;P1;durP1;ratioP1;P2;durP2;ratioP2
4244;SDS011;2136;48.502;9.194;2023-01-04T00:01:28;13.70;;;8.53;;
4244;SDS011;2136;48.502;9.194;2023-01-04T00:03:55;11.93;;;9.13;;
4244;SDS011;2136;48.502;9.194;2023-01-04T00:06:23;12.33;;;9.07;;
4244;SDS011;2136;48.502;9.194;2023-01-04T00:08:50;14.40;;;9.03;;
4244;SDS011;2136;48.502;9.194;2023-01-04T00:11:17;14.05;;;9.40;;
4244;SDS011;2136;48.502;9.194;2023-01-04T00:13:45;15.53;;;9.83;;
4244;SDS011;2136;48.502;9.194;2023-01-04T00:16:14;15.83;;;9.63;;
4244;SDS011;2136;48.502;9.194;2023-01-04T00:18:42;14.40;;;11.57;;
4244;SDS011;2136;48.502;9.194;2023-01-04T00:21:10;19.83;;;10.30;;
4244;SDS011;2136;48.502;9.194;2023-01-04T00:23:39;19.50;;;10.70;;
4244;SDS011;2136;48.502;9.194;2023-01-04T00:26:07;14.47;;;10.37;;
4244;SDS011;2136;48.502;9.194;2023-01-04T00:28:35;13.93;;;10.03;;
4244;SDS011;2136;48.502;9.194;2023-01-04T00:31:03;19.27;;;11.20;;
4244;SDS011;2136;48.502;9.194;2023-01-04T00:33:31;16.10;;;9.50;;
4244;SDS011;2136;48.502;9.194;2023-01-04T00:36:02;14.53;;;9.83;;
4244;SDS011;2136;48.502;9.194;2023-01-04T00:38:30;12.77;;;9.10;;
4244;SDS011;2136;48.502;9.194;2023-01-04T00:40:58;11.67;;;8.30;;
4244;SDS011;2136;48.502;9.194;2023-01-04T00:43:26;19.30;;;8.63;;
4244;SDS011;2136;48.502;9.194;2023-01-04T00:45:53;14.17;;;9.47;;
4244;SDS011;2136;48.502;9.194;2023-01-04T00:48:20;9.80;;;8.00;;
4244;SDS011;2136;48.502;9.194;2023-01-04T00:50:47;15.20;;;8.43;;
4244;SDS011;2136;48.502;9.194;2023-01-04T00:53:14;17.67;;;8.27;;
4244;SDS011;2136;48.502;9.194;2023-01-04T00:55:42;11.30;;;7.70;;
4244;SDS011;2136;48.502;9.194;2023-01-04T00:58:10;12.30;;;7.37;;
4244;SDS011;2136;48.502;9.194;2023-01-04T01:00:37;10.40;;;7.63;;
4244;SDS011;2136;48.502;9.194;2023-01-04T01:03:05;13.00;;;8.07;;
4244;SDS011;2136;48.502;9.194;2023-01-04T01:05:32;10.50;;;7.50;;
4244;SDS011;2136;48.502;9.194;2023-01-04T01:07:59;11.30;;;7.30;;
4244;SDS011;2136;48.502;9.194;2023-01-04T01:10:47;11.17;;;7.83;;
4244;SDS011;2136;48.502;9.194;2023-01-04T01:13:15;15.20;;;9.50;;
4244;SDS011;2136;48.502;9.194;2023-01-04T01:15:42;11.73;;;7.83;;
4244;SDS011;2136;48.502;9.194;2023-01-04T01:18:09;10.87;;;9.07;;
4244;SDS011;2136;48.502;9.194;2023-01-04T01:20:39;12.37;;;8.70;;
4244;SDS011;2136;48.502;9.194;2023-01-04T01:23:06;12.77;;;7.13;;
4244;SDS011;2136;48.502;9.194;2023-01-04T01:25:33;11.30;;;8.10;;
4244;SDS011;2136;48.502;9.194;2023-01-04T01:28:00;13.90;;;8.50;;
4244;SDS011;2136;48.502;9.194;2023-01-04T01:30:28;12.40;;;7.63;;
4244;SDS011;2136;48.502;9.194;2023-01-04T01:32:55;10.73;;;8.00;;
4244;SDS011;2136;48.502;9.194;2023-01-04T01:35:21;9.10;;;7.90;;
4244;SDS011;2136;48.502;9.194;2023-01-04T01:37:48;11.43;;;8.27;;
4244;SDS011;2136;48.502;9.194;2023-01-04T01:40:15;10.30;;;8.17;;
4244;SDS011;2136;48.502;9.194;2023-01-04T01:42:42;10.57;;;7.78;;
4244;SDS011;2136;48.502;9.194;2023-01-04T01:45:17;10.80;;;7.53;;
4244;SDS011;2136;48.502;9.194;2023-01-04T01:47:51;15.30;;;7.70;;
4244;SDS011;2136;48.502;9.194;2023-01-04T01:50:22;8.60;;;7.70;;
4244;SDS011;2136;48.502;9.194;2023-01-04T01:52:53;10.37;;;8.03;;
4244;SDS011;2136;48.502;9.194;2023-01-04T01:55:23;9.10;;;7.27;;
4244;SDS011;2136;48.502;9.194;2023-01-04T01:57:50;10.60;;;8.10;;
4244;SDS011;2136;48.502;9.194;2023-01-04T02:00:20;13.13;;;7.50;;
4244;SDS011;2136;48.502;9.194;2023-01-04T02:02:49;10.20;;;7.27;;
4244;SDS011;2136;48.502;9.194;2023-01-04T02:05:22;10.20;;;7.30;;
4244;SDS011;2136;48.502;9.194;2023-01-04T02:07:50;8.77;;;6.87;;
4244;SDS011;2136;48.502;9.194;2023-01-04T02:10:18;11.53;;;7.13;;
4244;SDS011;2136;48.502;9.194;2023-01-04T02:12:45;10.07;;;6.93;;
4244;SDS011;2136;48.502;9.194;2023-01-04T02:15:15;8.53;;;7.33;;
4244;SDS011;2136;48.502;9.194;2023-01-04T02:17:44;11.15;;;7.28;;
4244;SDS011;2136;48.502;9.194;2023-01-04T02:20:24;8.60;;;6.43;;
4244;SDS011;2136;48.502;9.194;2023-01-04T02:32:47;8.37;;;6.80;;
4244;SDS011;2136;48.502;9.194;2023-01-04T02:35:26;8.07;;;5.93;;
4244;SDS011;2136;48.502;9.194;2023-01-04T02:37:57;9.73;;;6.40;;
4244;SDS011;2136;48.502;9.194;2023-01-04T02:40:33;8.67;;;6.37;;
4244;SDS011;2136;48.502;9.194;2023-01-04T02:43:11;8.93;;;7.15;;
4244;SDS011;2136;48.502;9.194;2023-01-04T02:46:01;8.57;;;6.97;;
4244;SDS011;2136;48.502;9.194;2023-01-04T02:48:37;9.30;;;6.93;;
4244;SDS011;2136;48.502;9.194;2023-01-04T02:51:27;8.93;;;6.35;;
4244;SDS011;2136;48.502;9.194;2023-01-04T02:53:57;11.90;;;6.73;;
4244;SDS011;2136;48.502;9.194;2023-01-04T02:56:28;7.90;;;6.63;;
4244;SDS011;2136;48.502;9.194;2023-01-04T02:59:04;11.35;;;7.15;;
4244;SDS011;2136;48.502;9.194;2023-01-04T03:01:50;8.80;;;6.55;;
4244;SDS011;2136;48.502;9.194;2023-01-04T03:04:42;8.80;;;6.90;;
4244;SDS011;2136;48.502;9.194;2023-01-04T03:07:38;7.03;;;5.97;;
4244;SDS011;2136;48.502;9.194;2023-01-04T03:10:14;6.53;;;5.75;;
4244;SDS011;2136;48.502;9.194;2023-01-04T03:12:49;9.40;;;6.53;;
4244;SDS011;2136;48.502;9.194;2023-01-04T03:15:22;7.80;;;5.97;;
4244;SDS011;2136;48.502;9.194;2023-01-04T03:17:51;7.97;;;6.10;;
4244;SDS011;2136;48.502;9.194;2023-01-04T03:20:23;7.23;;;5.87;;
4244;SDS011;2136;48.502;9.194;2023-01-04T03:22:54;11.95;;;5.90;;
4244;SDS011;2136;48.502;9.194;2023-01-04T03:25:41;10.07;;;7.50;;
4244;SDS011;2136;48.502;9.194;2023-01-04T03:28:30;10.02;;;7.07;;
4244;SDS011;2136;48.502;9.194;2023-01-04T03:31:18;9.55;;;7.15;;
4244;SDS011;2136;48.502;9.194;2023-01-04T03:34:18;9.37;;;7.00;;
4244;SDS011;2136;48.502;9.194;2023-01-04T03:37:08;8.40;;;6.17;;
4244;SDS011;2136;48.502;9.194;2023-01-04T03:43:03;10.15;;;6.85;;
4244;SDS011;2136;48.502;9.194;2023-01-04T03:45:52;7.87;;;6.07;;
4244;SDS011;2136;48.502;9.194;2023-01-04T03:48:40;8.50;;;6.30;;
4244;SDS011;2136;48.502;9.194;2023-01-04T03:51:12;8.13;;;6.10;;
4244;SDS011;2136;48.502;9.194;2023-01-04T03:53:53;7.20;;;6.23;;
4244;SDS011;2136;48.502;9.194;2023-01-04T03:56:25;7.70;;;5.78;;
4244;SDS011;2136;48.502;9.194;2023-01-04T03:58:53;8.70;;;6.40;;
4244;SDS011;2136;48.502;9.194;2023-01-04T04:01:21;7.60;;;6.80;;
4244;SDS011;2136;48.502;9.194;2023-01-04T04:03:50;8.40;;;6.53;;
4244;SDS011;2136;48.502;9.194;2023-01-04T04:06:34;9.43;;;6.93;;
4244;SDS011;2136;48.502;9.194;2023-01-04T04:09:20;9.57;;;7.15;;
4244;SDS011;2136;48.502;9.194;2023-01-04T04:11:47;10.98;;;7.93;;
4244;SDS011;2136;48.502;9.194;2023-01-04T04:14:13;6.70;;;6.10;;
4244;SDS011;2136;48.502;9.194;2023-01-04T04:16:40;8.15;;;6.78;;
4244;SDS011;2136;48.502;9.194;2023-01-04T04:19:07;44.05;;;7.70;;
4244;SDS011;2136;48.502;9.194;2023-01-04T04:21:34;10.35;;;7.00;;
4244;SDS011;2136;48.502;9.194;2023-01-04T04:24:01;7.27;;;6.47;;
4244;SDS011;2136;48.502;9.194;2023-01-04T04:26:29;9.93;;;7.35;;
4244;SDS011;2136;48.502;9.194;2023-01-04T04:28:56;9.80;;;6.77;;
4244;SDS011;2136;48.502;9.194;2023-01-04T04:31:23;9.90;;;6.78;;
4244;SDS011;2136;48.502;9.194;2023-01-04T04:33:50;8.87;;;7.90;;
4244;SDS011;2136;48.502;9.194;2023-01-04T04:36:16;12.33;;;7.77;;
4244;SDS011;2136;48.502;9.194;2023-01-04T04:38:43;7.27;;;5.57;;
4244;SDS011;2136;48.502;9.194;2023-01-04T04:41:13;10.03;;;6.40;;
4244;SDS011;2136;48.502;9.194;2023-01-04T04:43:59;10.13;;;6.27;;
4244;SDS011;2136;48.502;9.194;2023-01-04T04:46:26;6.97;;;5.90;;
4244;SDS011;2136;48.502;9.194;2023-01-04T04:48:53;9.10;;;6.97;;
4244;SDS011;2136;48.502;9.194;2023-01-04T04:51:20;8.43;;;6.45;;
4244;SDS011;2136;48.502;9.194;2023-01-04T04:53:47;7.00;;;6.00;;
4244;SDS011;2136;48.502;9.194;2023-01-04T04:56:14;11.67;;;6.83;;
4244;SDS011;2136;48.502;9.194;2023-01-04T04:58:41;6.93;;;5.80;;
4244;SDS011;2136;48.502;9.194;2023-01-04T05:01:09;10.90;;;5.90;;
4244;SDS011;2136;48.502;9.194;2023-01-04T05:03:36;9.40;;;6.80;;
4244;SDS011;2136;48.502;9.194;2023-01-04T05:06:03;9.33;;;6.43;;
4244;SDS011;2136;48.502;9.194;2023-01-04T05:08:30;10.90;;;6.80;;
4244;SDS011;2136;48.502;9.194;2023-01-04T05:10:57;8.10;;;5.60;;
4244;SDS011;2136;48.502;9.194;2023-01-04T05:13:24;7.97;;;6.20;;
4244;SDS011;2136;48.502;9.194;2023-01-04T05:15:51;8.53;;;5.63;;
4244;SDS011;2136;48.502;9.194;2023-01-04T05:18:20;5.40;;;4.90;;
4244;SDS011;2136;48.502;9.194;2023-01-04T05:20:48;6.90;;;5.50;;
4244;SDS011;2136;48.502;9.194;2023-01-04T05:23:16;7.53;;;5.13;;
4244;SDS011;2136;48.502;9.194;2023-01-04T05:25:44;12.77;;;8.27;;
4244;SDS011;2136;48.502;9.194;2023-01-04T05:28:11;7.50;;;6.27;;
4244;SDS011;2136;48.502;9.194;2023-01-04T05:30:38;5.67;;;5.07;;
4244;SDS011;2136;48.502;9.194;2023-01-04T05:33:15;4.30;;;3.90;;
4244;SDS011;2136;48.502;9.194;2023-01-04T05:35:44;8.27;;;4.80;;
4244;SDS011;2136;48.502;9.194;2023-01-04T05:38:11;7.30;;;6.07;;
4244;SDS011;2136;48.502;9.194;2023-01-04T05:40:38;6.80;;;5.77;;
4244;SDS011;2136;48.502;9.194;2023-01-04T05:43:06;24.00;;;12.13;;
4244;SDS011;2136;48.502;9.194;2023-01-04T05:45:33;16.20;;;10.33;;
4244;SDS011;2136;48.502;9.194;2023-01-04T05:48:00;20.60;;;11.87;;
4244;SDS011;2136;48.502;9.194;2023-01-04T05:50:27;19.80;;;10.70;;
4244;SDS011;2136;48.502;9.194;2023-01-04T05:52:55;22.40;;;12.80;;
4244;SDS011;2136;48.502;9.194;2023-01-04T05:55:22;16.70;;;9.87;;
4244;SDS011;2136;48.502;9.194;2023-01-04T05:57:49;14.57;;;10.97;;
4244;SDS011;2136;48.502;9.194;2023-01-04T06:00:16;18.17;;;12.60;;
4244;SDS011;2136;48.502;9.194;2023-01-04T06:02:43;23.07;;;17.67;;
4244;SDS011;2136;48.502;9.194;2023-01-04T06:05:10;22.47;;;15.07;;
4244;SDS011;2136;48.502;9.194;2023-01-04T06:07:38;14.60;;;10.27;;
4244;SDS011;2136;48.502;9.194;2023-01-04T06:10:08;12.77;;;8.63;;
4244;SDS011;2136;48.502;9.194;2023-01-04T06:12:36;10.10;;;6.83;;
4244;SDS011;2136;48.502;9.194;2023-01-04T06:15:04;6.73;;;6.03;;
4244;SDS011;2136;48.502;9.194;2023-01-04T06:17:32;10.70;;;8.23;;
4244;SDS011;2136;48.502;9.194;2023-01-04T06:19:59;8.43;;;6.83;;
4244;SDS011;2136;48.502;9.194;2023-01-04T06:22:26;9.20;;;6.53;;
4244;SDS011;2136;48.502;9.194;2023-01-04T06:24:54;10.33;;;5.27;;
4244;SDS011;2136;48.502;9.194;2023-01-04T06:27:22;5.60;;;5.10;;
4244;SDS011;2136;48.502;9.194;2023-01-04T06:29:49;8.63;;;4.90;;
4244;SDS011;2136;48.502;9.194;2023-01-04T06:32:17;6.73;;;4.90;;
4244;SDS011;2136;48.502;9.194;2023-01-04T06:34:43;8.60;;;5.50;;
4244;SDS011;2136;48.502;9.194;2023-01-04T06:37:10;7.10;;;6.00;;
4244;SDS011;2136;48.502;9.194;2023-01-04T06:39:37;5.33;;;4.80;;
4244;SDS011;2136;48.502;9.194;2023-01-04T06:42:04;5.97;;;4.50;;
4244;SDS011;2136;48.502;9.194;2023-01-04T06:44:52;5.73;;;4.70;;
4244;SDS011;2136;48.502;9.194;2023-01-04T06:47:19;9.53;;;5.60;;
4244;SDS011;2136;48.502;9.194;2023-01-04T06:49:45;4.60;;;4.00;;
4244;SDS011;2136;48.502;9.194;2023-01-04T06:52:12;4.63;;;4.13;;
4244;SDS011;2136;48.502;9.194;2023-01-04T06:54:39;2.93;;;2.73;;
4244;SDS011;2136;48.502;9.194;2023-01-04T06:57:06;3.90;;;3.40;;
4244;SDS011;2136;48.502;9.194;2023-01-04T06:59:33;3.13;;;2.93;;
4244;SDS011;2136;48.502;9.194;2023-01-04T07:02:01;3.43;;;2.77;;
4244;SDS011;2136;48.502;9.194;2023-01-04T07:04:27;3.23;;;2.93;;
4244;SDS011;2136;48.502;9.194;2023-01-04T07:06:54;2.40;;;2.20;;
4244;SDS011;2136;48.502;9.194;2023-01-04T07:09:22;4.40;;;2.50;;
4244;SDS011;2136;48.502;9.194;2023-01-04T07:11:49;2.80;;;2.60;;
4244;SDS011;2136;48.502;9.194;2023-01-04T07:14:15;2.60;;;2.40;;
4244;SDS011;2136;48.502;9.194;2023-01-04T07:16:42;5.67;;;2.90;;
4244;SDS011;2136;48.502;9.194;2023-01-04T07:19:10;3.17;;;2.87;;
4244;SDS011;2136;48.502;9.194;2023-01-04T07:21:37;3.83;;;3.50;;
4244;SDS011;2136;48.502;9.194;2023-01-04T07:24:04;2.77;;;2.57;;
4244;SDS011;2136;48.502;9.194;2023-01-04T07:26:31;2.63;;;2.43;;
4244;SDS011;2136;48.502;9.194;2023-01-04T07:28:58;2.87;;;2.07;;
4244;SDS011;2136;48.502;9.194;2023-01-04T07:31:41;2.23;;;2.03;;
4244;SDS011;2136;48.502;9.194;2023-01-04T07:34:10;3.93;;;2.63;;
4244;SDS011;2136;48.502;9.194;2023-01-04T07:36:37;2.10;;;1.90;;
4244;SDS011;2136;48.502;9.194;2023-01-04T07:39:05;3.37;;;2.17;;
4244;SDS011;2136;48.502;9.194;2023-01-04T07:41:34;3.77;;;2.60;;
4244;SDS011;2136;48.502;9.194;2023-01-04T07:44:01;3.33;;;2.17;;
4244;SDS011;2136;48.502;9.194;2023-01-04T07:46:28;6.00;;;3.73;;
4244;SDS011;2136;48.502;9.194;2023-01-04T07:48:54;2.43;;;2.20;;
4244;SDS011;2136;48.502;9.194;2023-01-04T07:51:22;2.20;;;2.03;;
4244;SDS011;2136;48.502;9.194;2023-01-04T07:53:50;4.20;;;2.10;;
4244;SDS011;2136;48.502;9.194;2023-01-04T07:56:16;2.60;;;1.90;;
4244;SDS011;2136;48.502;9.194;2023-01-04T07:58:44;1.90;;;1.67;;
4244;SDS011;2136;48.502;9.194;2023-01-04T08:01:11;1.47;;;1.37;;
4244;SDS011;2136;48.502;9.194;2023-01-04T08:03:39;2.20;;;1.73;;
4244;SDS011;2136;48.502;9.194;2023-01-04T08:06:07;1.60;;;1.40;;
4244;SDS011;2136;48.502;9.194;2023-01-04T08:08:37;2.53;;;1.40;;
4244;SDS011;2136;48.502;9.194;2023-01-04T08:11:05;2.20;;;1.50;;
4244;SDS011;2136;48.502;9.194;2023-01-04T08:13:32;1.80;;;1.70;;
4244;SDS011;2136;48.502;9.194;2023-01-04T08:15:59;3.30;;;1.60;;
4244;SDS011;2136;48.502;9.194;2023-01-04T08:18:26;1.53;;;1.43;;
4244;SDS011;2136;48.502;9.194;2023-01-04T08:21:00;1.40;;;1.27;;
4244;SDS011;2136;48.502;9.194;2023-01-04T08:23:27;1.33;;;1.23;;
4244;SDS011;2136;48.502;9.194;2023-01-04T08:25:59;1.73;;;1.20;;
4244;SDS011;2136;48.502;9.194;2023-01-04T08:28:27;1.50;;;1.40;;
4244;SDS011;2136;48.502;9.194;2023-01-04T08:30:54;11.33;;;1.70;;
4244;SDS011;2136;48.502;9.194;2023-01-04T08:33:21;1.43;;;1.00;;
4244;SDS011;2136;48.502;9.194;2023-01-04T08:35:47;2.37;;;1.57;;
4244;SDS011;2136;48.502;9.194;2023-01-04T08:38:14;2.20;;;1.13;;
4244;SDS011;2136;48.502;9.194;2023-01-04T08:40:41;2.57;;;1.00;;
4244;SDS011;2136;48.502;9.194;2023-01-04T08:43:09;2.50;;;1.60;;
4244;SDS011;2136;48.502;9.194;2023-01-04T08:45:36;2.97;;;1.50;;
4244;SDS011;2136;48.502;9.194;2023-01-04T08:48:03;9.90;;;1.80;;
4244;SDS011;2136;48.502;9.194;2023-01-04T08:50:30;1.07;;;1.00;;
4244;SDS011;2136;48.502;9.194;2023-01-04T08:52:57;1.83;;;1.73;;
4244;SDS011;2136;48.502;9.194;2023-01-04T08:55:23;5.63;;;2.97;;
4244;SDS011;2136;48.502;9.194;2023-01-04T08:57:50;3.43;;;2.27;;
4244;SDS011;2136;48.502;9.194;2023-01-04T09:00:18;3.00;;;1.60;;
4244;SDS011;2136;48.502;9.194;2023-01-04T09:02:46;0.90;;;0.80;;
4244;SDS011;2136;48.502;9.194;2023-01-04T09:05:12;2.67;;;1.40;;
4244;SDS011;2136;48.502;9.194;2023-01-04T09:07:39;0.70;;;0.70;;
4244;SDS011;2136;48.502;9.194;2023-01-04T09:10:07;0.70;;;0.70;;
4244;SDS011;2136;48.502;9.194;2023-01-04T09:12:34;0.77;;;0.77;;
4244;SDS011;2136;48.502;9.194;2023-01-04T09:15:01;2.17;;;1.10;;
4244;SDS011;2136;48.502;9.194;2023-01-04T09:17:30;0.90;;;0.90;;
4244;SDS011;2136;48.502;9.194;2023-01-04T09:19:57;0.90;;;0.70;;
4244;SDS011;2136;48.502;9.194;2023-01-04T09:22:23;1.20;;;1.10;;
4244;SDS011;2136;48.502;9.194;2023-01-04T09:24:50;3.23;;;2.27;;
4244;SDS011;2136;48.502;9.194;2023-01-04T09:27:18;1.57;;;1.47;;
4244;SDS011;2136;48.502;9.194;2023-01-04T09:29:45;0.97;;;0.80;;
4244;SDS011;2136;48.502;9.194;2023-01-04T09:32:12;0.70;;;0.70;;
4244;SDS011;2136;48.502;9.194;2023-01-04T09:34:40;1.43;;;0.60;;
4244;SDS011;2136;48.502;9.194;2023-01-04T09:37:07;3.20;;;0.70;;
4244;SDS011;2136;48.502;9.194;2023-01-04T09:39:33;3.50;;;0.77;;
4244;SDS011;2136;48.502;9.194;2023-01-04T09:42:01;1.70;;;0.60;;
4244;SDS011;2136;48.502;9.194;2023-01-04T09:44:33;1.50;;;0.80;;
4244;SDS011;2136;48.502;9.194;2023-01-04T09:47:05;0.70;;;0.70;;
4244;SDS011;2136;48.502;9.194;2023-01-04T09:49:35;1.03;;;0.70;;
4244;SDS011;2136;48.502;9.194;2023-01-04T09:52:10;1.90;;;1.80;;
4244;SDS011;2136;48.502;9.194;2023-01-04T09:54:42;0.77;;;0.77;;
4244;SDS011;2136;48.502;9.194;2023-01-04T09:57:13;0.80;;;0.80;;
4244;SDS011;2136;48.502;9.194;2023-01-04T09:59:45;1.20;;;1.10;;
4244;SDS011;2136;48.502;9.194;2023-01-04T10:02:16;0.90;;;0.90;;
4244;SDS011;2136;48.502;9.194;2023-01-04T10:04:48;1.10;;;1.00;;
4244;SDS011;2136;48.502;9.194;2023-01-04T10:07:19;1.00;;;1.00;;
4244;SDS011;2136;48.502;9.194;2023-01-04T10:09:49;1.40;;;1.00;;
4244;SDS011;2136;48.502;9.194;2023-01-04T10:12:23;1.50;;;1.20;;
4244;SDS011;2136;48.502;9.194;2023-01-04T10:15:02;7.33;;;1.00;;
4244;SDS011;2136;48.502;9.194;2023-01-04T10:17:42;1.10;;;1.00;;
4244;SDS011;2136;48.502;9.194;2023-01-04T10:20:26;3.83;;;2.07;;
4244;SDS011;2136;48.502;9.194;2023-01-04T10:23:09;1.10;;;0.90;;
4244;SDS011;2136;48.502;9.194;2023-01-04T10:25:43;1.27;;;1.00;;
4244;SDS011;2136;48.502;9.194;2023-01-04T10:28:22;1.13;;;0.90;;
4244;SDS011;2136;48.502;9.194;2023-01-04T10:30:57;1.33;;;1.23;;
4244;SDS011;2136;48.502;9.194;2023-01-04T10:33:32;3.07;;;1.00;;
4244;SDS011;2136;48.502;9.194;2023-01-04T10:36:10;2.67;;;0.90;;
4244;SDS011;2136;48.502;9.194;2023-01-04T10:38:45;5.13;;;1.23;;
4244;SDS011;2136;48.502;9.194;2023-01-04T10:41:16;2.10;;;1.50;;
4244;SDS011;2136;48.502;9.194;2023-01-04T10:43:50;1.20;;;1.10;;
4244;SDS011;2136;48.502;9.194;2023-01-04T10:46:28;1.53;;;0.90;;
4244;SDS011;2136;48.502;9.194;2023-01-04T10:48:59;1.13;;;1.03;;
4244;SDS011;2136;48.502;9.194;2023-01-04T10:51:32;1.07;;;0.90;;
4244;SDS011;2136;48.502;9.194;2023-01-04T10:54:07;1.00;;;0.90;;
4244;SDS011;2136;48.502;9.194;2023-01-04T10:56:43;4.43;;;2.10;;
4244;SDS011;2136;48.502;9.194;2023-01-04T10:59:17;3.13;;;1.77;;
4244;SDS011;2136;48.502;9.194;2023-01-04T11:01:49;2.20;;;1.27;;
4244;SDS011;2136;48.502;9.194;2023-01-04T11:04:20;1.83;;;1.63;;
4244;SDS011;2136;48.502;9.194;2023-01-04T11:06:52;4.97;;;2.80;;
4244;SDS011;2136;48.502;9.194;2023-01-04T11:09:25;1.73;;;0.90;;
4244;SDS011;2136;48.502;9.194;2023-01-04T11:11:58;2.07;;;0.90;;
4244;SDS011;2136;48.502;9.194;2023-01-04T11:14:27;1.67;;;1.27;;
4244;SDS011;2136;48.502;9.194;2023-01-04T11:16:56;3.80;;;3.20;;
4244;SDS011;2136;48.502;9.194;2023-01-04T11:19:26;1.07;;;1.07;;
4244;SDS011;2136;48.502;9.194;2023-01-04T11:21:55;1.10;;;1.10;;
4244;SDS011;2136;48.502;9.194;2023-01-04T11:24:29;1.63;;;0.97;;
4244;SDS011;2136;48.502;9.194;2023-01-04T11:26:58;1.30;;;1.17;;
4244;SDS011;2136;48.502;9.194;2023-01-04T11:29:31;1.07;;;1.03;;
4244;SDS011;2136;48.502;9.194;2023-01-04T11:32:04;1.47;;;1.10;;
4244;SDS011;2136;48.502;9.194;2023-01-04T11:34:45;2.20;;;1.43;;
4244;SDS011;2136;48.502;9.194;2023-01-04T11:37:27;0.80;;;0.80;;
4244;SDS011;2136;48.502;9.194;2023-01-04T11:42:49;2.58;;;1.80;;
4244;SDS011;2136;48.502;9.194;2023-01-04T11:45:19;2.53;;;2.00;;
4244;SDS011;2136;48.502;9.194;2023-01-04T11:47:52;1.80;;;1.63;;
4244;SDS011;2136;48.502;9.194;2023-01-04T11:50:33;1.50;;;1.40;;
4244;SDS011;2136;48.502;9.194;2023-01-04T11:53:05;2.40;;;1.00;;
4244;SDS011;2136;48.502;9.194;2023-01-04T11:56:06;1.77;;;1.00;;
4244;SDS011;2136;48.502;9.194;2023-01-04T11:58:34;1.00;;;0.90;;
4244;SDS011;2136;48.502;9.194;2023-01-04T12:01:01;1.50;;;0.90;;
4244;SDS011;2136;48.502;9.194;2023-01-04T12:03:29;0.70;;;0.70;;
4244;SDS011;2136;48.502;9.194;2023-01-04T12:05:57;2.40;;;0.70;;
4244;SDS011;2136;48.502;9.194;2023-01-04T12:08:28;1.23;;;1.13;;
4244;SDS011;2136;48.502;9.194;2023-01-04T12:10:58;1.23;;;1.00;;
4244;SDS011;2136;48.502;9.194;2023-01-04T12:13:27;1.70;;;1.60;;
4244;SDS011;2136;48.502;9.194;2023-01-04T12:15:56;1.60;;;1.50;;
4244;SDS011;2136;48.502;9.194;2023-01-04T12:18:33;2.53;;;1.10;;
4244;SDS011;2136;48.502;9.194;2023-01-04T12:21:02;0.93;;;0.87;;
4244;SDS011;2136;48.502;9.194;2023-01-04T12:23:29;1.07;;;0.70;;
4244;SDS011;2136;48.502;9.194;2023-01-04T12:25:59;1.17;;;1.07;;
4244;SDS011;2136;48.502;9.194;2023-01-04T12:28:31;6.43;;;1.03;;
4244;SDS011;2136;48.502;9.194;2023-01-04T12:33:56;2.23;;;1.43;;
4244;SDS011;2136;48.502;9.194;2023-01-04T12:39:29;1.50;;;1.40;;
4244;SDS011;2136;48.502;9.194;2023-01-04T12:42:11;0.70;;;0.70;;
4244;SDS011;2136;48.502;9.194;2023-01-04T12:47:42;1.13;;;0.80;;
4244;SDS011;2136;48.502;9.194;2023-01-04T12:50:27;2.00;;;1.10;;
4244;SDS011;2136;48.502;9.194;2023-01-04T12:52:57;1.00;;;0.80;;
4244;SDS011;2136;48.502;9.194;2023-01-04T13:01:26;0.93;;;0.80;;
4244;SDS011;2136;48.502;9.194;2023-01-04T13:03:54;0.70;;;0.70;;
4244;SDS011;2136;48.502;9.194;2023-01-04T13:06:24;0.93;;;0.87;;
4244;SDS011;2136;48.502;9.194;2023-01-04T13:08:54;1.37;;;1.20;;
4244;SDS011;2136;48.502;9.194;2023-01-04T13:14:13;1.40;;;1.30;;
4244;SDS011;2136;48.502;9.194;2023-01-04T13:16:49;0.80;;;0.80;;
4244;SDS011;2136;48.502;9.194;2023-01-04T13:19:33;1.13;;;1.03;;
4244;SDS011;2136;48.502;9.194;2023-01-04T13:22:08;1.23;;;1.00;;
4244;SDS011;2136;48.502;9.194;2023-01-04T13:24:41;3.37;;;2.13;;
4244;SDS011;2136;48.502;9.194;2023-01-04T13:27:13;0.80;;;0.80;;
4244;SDS011;2136;48.502;9.194;2023-01-04T13:29:41;1.10;;;1.00;;
4244;SDS011;2136;48.502;9.194;2023-01-04T13:32:10;4.03;;;2.10;;
4244;SDS011;2136;48.502;9.194;2023-01-04T13:34:38;1.33;;;1.23;;
4244;SDS011;2136;48.502;9.194;2023-01-04T13:37:15;1.07;;;0.97;;
4244;SDS011;2136;48.502;9.194;2023-01-04T13:39:51;4.47;;;1.90;;
4244;SDS011;2136;48.502;9.194;2023-01-04T13:42:28;1.40;;;1.30;;
4244;SDS011;2136;48.502;9.194;2023-01-04T13:45:08;4.10;;;1.00;;
4244;SDS011;2136;48.502;9.194;2023-01-04T13:47:54;3.07;;;1.87;;
4244;SDS011;2136;48.502;9.194;2023-01-04T13:50:25;4.33;;;2.57;;
4244;SDS011;2136;48.502;9.194;2023-01-04T13:52:55;1.43;;;1.33;;
4244;SDS011;2136;48.502;9.194;2023-01-04T13:55:24;1.20;;;1.10;;
4244;SDS011;2136;48.502;9.194;2023-01-04T13:57:53;3.17;;;1.50;;
4244;SDS011;2136;48.502;9.194;2023-01-04T14:00:21;1.47;;;1.30;;
4244;SDS011;2136;48.502;9.194;2023-01-04T14:03:02;5.70;;;2.53;;
4244;SDS011;2136;48.502;9.194;2023-01-04T14:05:38;2.77;;;2.13;;
4244;SDS011;2136;48.502;9.194;2023-01-04T14:08:13;6.97;;;1.50;;
4244;SDS011;2136;48.502;9.194;2023-01-04T14:10:45;3.50;;;2.17;;
4244;SDS011;2136;48.502;9.194;2023-01-04T14:13:14;0.90;;;0.90;;
4244;SDS011;2136;48.502;9.194;2023-01-04T14:15:42;1.37;;;1.00;;
4244;SDS011;2136;48.502;9.194;2023-01-04T14:18:24;1.30;;;1.20;;
4244;SDS011;2136;48.502;9.194;2023-01-04T14:20:52;1.87;;;1.53;;
4244;SDS011;2136;48.502;9.194;2023-01-04T14:23:24;0.87;;;0.87;;
4244;SDS011;2136;48.502;9.194;2023-01-04T14:25:53;1.00;;;0.90;;
4244;SDS011;2136;48.502;9.194;2023-01-04T14:34:06;2.40;;;1.60;;
4244;SDS011;2136;48.502;9.194;2023-01-04T14:36:40;3.00;;;1.77;;
4244;SDS011;2136;48.502;9.194;2023-01-04T14:39:09;1.20;;;1.10;;
4244;SDS011;2136;48.502;9.194;2023-01-04T14:41:43;2.70;;;1.40;;
4244;SDS011;2136;48.502;9.194;2023-01-04T14:44:18;0.83;;;0.80;;
4244;SDS011;2136;48.502;9.194;2023-01-04T14:46:47;1.40;;;0.80;;
4244;SDS011;2136;48.502;9.194;2023-01-04T14:49:15;1.13;;;1.03;;
4244;SDS011;2136;48.502;9.194;2023-01-04T14:51:44;0.83;;;0.63;;
4244;SDS011;2136;48.502;9.194;2023-01-04T14:54:13;2.40;;;1.20;;
4244;SDS011;2136;48.502;9.194;2023-01-04T14:56:41;1.33;;;0.87;;
4244;SDS011;2136;48.502;9.194;2023-01-04T14:59:08;0.70;;;0.70;;
4244;SDS011;2136;48.502;9.194;2023-01-04T15:01:35;0.73;;;0.73;;
4244;SDS011;2136;48.502;9.194;2023-01-04T15:04:03;0.70;;;0.70;;
4244;SDS011;2136;48.502;9.194;2023-01-04T15:06:32;1.30;;;1.20;;
4244;SDS011;2136;48.502;9.194;2023-01-04T15:08:59;1.07;;;1.07;;
4244;SDS011;2136;48.502;9.194;2023-01-04T15:11:26;1.23;;;1.13;;
4244;SDS011;2136;48.502;9.194;2023-01-04T15:13:55;3.13;;;2.83;;
4244;SDS011;2136;48.502;9.194;2023-01-04T15:16:22;1.90;;;1.73;;
4244;SDS011;2136;48.502;9.194;2023-01-04T15:18:49;1.60;;;1.40;;
4244;SDS011;2136;48.502;9.194;2023-01-04T15:21:15;3.87;;;1.90;;
4244;SDS011;2136;48.502;9.194;2023-01-04T15:23:44;2.73;;;1.87;;
4244;SDS011;2136;48.502;9.194;2023-01-04T15:26:11;3.57;;;1.97;;
4244;SDS011;2136;48.502;9.194;2023-01-04T15:28:38;1.03;;;1.03;;
4244;SDS011;2136;48.502;9.194;2023-01-04T15:31:05;0.90;;;0.90;;
4244;SDS011;2136;48.502;9.194;2023-01-04T15:33:35;4.23;;;2.60;;
4244;SDS011;2136;48.502;9.194;2023-01-04T15:36:02;9.63;;;3.20;;
4244;SDS011;2136;48.502;9.194;2023-01-04T15:38:32;4.87;;;2.50;;
4244;SDS011;2136;48.502;9.194;2023-01-04T15:41:01;1.50;;;1.40;;
4244;SDS011;2136;48.502;9.194;2023-01-04T15:43:29;1.77;;;1.00;;
4244;SDS011;2136;48.502;9.194;2023-01-04T15:46:00;2.47;;;1.47;;
4244;SDS011;2136;48.502;9.194;2023-01-04T15:48:28;4.47;;;4.07;;
4244;SDS011;2136;48.502;9.194;2023-01-04T15:50:55;3.67;;;2.50;;
4244;SDS011;2136;48.502;9.194;2023-01-04T15:53:22;2.70;;;1.27;;
4244;SDS011;2136;48.502;9.194;2023-01-04T15:55:48;2.20;;;1.53;;
4244;SDS011;2136;48.502;9.194;2023-01-04T15:58:18;3.10;;;1.30;;
4244;SDS011;2136;48.502;9.194;2023-01-04T16:00:46;3.17;;;2.20;;
4244;SDS011;2136;48.502;9.194;2023-01-04T16:03:13;2.20;;;1.90;;
4244;SDS011;2136;48.502;9.194;2023-01-04T16:05:39;3.30;;;2.10;;
4244;SDS011;2136;48.502;9.194;2023-01-04T16:08:06;2.93;;;2.00;;
4244;SDS011;2136;48.502;9.194;2023-01-04T16:10:33;1.43;;;1.37;;
4244;SDS011;2136;48.502;9.194;2023-01-04T16:13:00;1.63;;;1.53;;